createdAt,value
2023-03-18T00:01:51.970Z,0.43
2023-03-18T00:06:53.463Z,0.40
2023-03-18T00:11:56.549Z,0.30
2023-03-18T00:16:57.946Z,0.45
2023-03-18T00:21:59.608Z,0.40
2023-03-18T00:27:01.055Z,0.55
2023-03-18T00:32:02.581Z,0.50
2023-03-18T00:37:03.994Z,0.40
2023-03-18T00:42:10.534Z,0.50
2023-03-18T00:47:11.922Z,0.40
2023-03-18T00:52:13.564Z,0.50
2023-03-18T00:57:14.952Z,0.40
2023-03-18T01:02:17.020Z,0.30
2023-03-18T01:07:19.360Z,0.45
2023-03-18T01:12:20.756Z,0.43
2023-03-18T01:17:22.175Z,0.30
2023-03-18T01:22:24.232Z,0.40
2023-03-18T01:27:25.646Z,0.40
2023-03-18T01:32:27.211Z,0.32
2023-03-18T01:37:28.898Z,0.40
2023-03-18T01:42:30.343Z,0.30
2023-03-18T01:47:31.777Z,0.30
2023-03-18T01:52:33.249Z,0.32
2023-03-18T01:57:34.706Z,0.30
2023-03-18T02:02:36.087Z,0.30
2023-03-18T02:07:37.938Z,0.40
2023-03-18T02:12:41.295Z,0.15
2023-03-18T02:17:46.752Z,0.50
2023-03-18T02:22:53.887Z,0.20
2023-03-18T02:28:00.534Z,0.43
2023-03-18T02:33:01.981Z,0.50
2023-03-18T02:38:04.639Z,0.30
2023-03-18T02:43:22.546Z,0.30
2023-03-18T02:48:25.958Z,0.38
2023-03-18T02:53:27.660Z,0.30
2023-03-18T02:58:29.042Z,0.60
2023-03-18T03:03:30.994Z,0.30
2023-03-18T03:08:32.382Z,0.50
2023-03-18T03:13:33.834Z,0.40
2023-03-18T03:18:35.398Z,0.30
2023-03-18T03:23:37.094Z,0.30
2023-03-18T03:28:38.471Z,0.40
2023-03-18T03:33:41.694Z,0.30
2023-03-18T03:38:43.448Z,0.43
2023-03-18T03:43:45.373Z,0.40
2023-03-18T03:48:47.800Z,0.32
2023-03-18T03:53:49.189Z,0.40
2023-03-18T03:58:50.596Z,0.32
2023-03-18T04:03:52.490Z,0.30
2023-03-18T04:08:53.868Z,0.30
2023-03-18T04:13:55.287Z,0.30
2023-03-18T04:18:56.676Z,0.43
2023-03-18T04:23:58.103Z,0.30
2023-03-18T04:28:59.484Z,0.30
2023-03-18T04:34:00.905Z,0.40
2023-03-18T04:39:02.529Z,0.40
2023-03-18T04:44:03.907Z,0.38
2023-03-18T04:49:05.329Z,0.40
2023-03-18T04:54:06.718Z,0.30
2023-03-18T04:59:09.052Z,0.30
2023-03-18T05:04:10.470Z,0.40
2023-03-18T05:09:13.127Z,0.30
2023-03-18T05:14:15.387Z,0.50
2023-03-18T05:19:17.077Z,0.40
2023-03-18T05:24:18.510Z,0.30
2023-03-18T05:29:19.896Z,0.32
2023-03-18T05:34:21.448Z,0.35
2023-03-18T05:39:22.834Z,0.43
2023-03-18T05:44:24.405Z,0.30
2023-03-18T05:49:27.100Z,0.30
2023-03-18T05:54:28.735Z,0.40
2023-03-18T05:59:30.204Z,0.30
2023-03-18T06:04:31.947Z,0.30
2023-03-18T06:09:34.208Z,0.57
2023-03-18T06:14:37.155Z,0.50
2023-03-18T06:19:38.641Z,0.40
2023-03-18T06:24:40.042Z,0.30
2023-03-18T06:29:41.601Z,0.50
2023-03-18T06:34:43.004Z,0.30
2023-03-18T06:39:44.649Z,0.30
2023-03-18T06:44:50.476Z,0.40
2023-03-18T06:49:51.941Z,0.43
2023-03-18T06:54:53.379Z,0.40
2023-03-18T06:59:54.777Z,0.40
2023-03-18T07:04:56.162Z,0.38
2023-03-18T07:09:57.540Z,0.40
2023-03-18T07:14:58.972Z,0.45
2023-03-18T07:20:00.360Z,0.30
2023-03-18T07:25:01.747Z,0.50
2023-03-18T07:30:03.609Z,0.40
2023-03-18T07:35:05.768Z,0.30
2023-03-18T07:40:08.342Z,0.30
2023-03-18T07:45:10.146Z,0.32
2023-03-18T07:50:12.179Z,0.30
2023-03-18T07:55:13.670Z,0.40
2023-03-18T08:00:15.307Z,0.22
2023-03-18T08:05:16.702Z,0.28
2023-03-18T08:10:18.159Z,0.32
2023-03-18T08:15:19.582Z,0.40
2023-03-18T08:20:21.391Z,0.30
2023-03-18T08:25:23.506Z,0.40
2023-03-18T08:30:28.454Z,0.40
2023-03-18T08:35:30.218Z,0.30
2023-03-18T08:40:32.457Z,0.30
2023-03-18T08:45:34.364Z,0.40
2023-03-18T08:50:36.521Z,0.40
2023-03-18T08:55:37.973Z,0.20
2023-03-18T09:00:39.663Z,0.30
2023-03-18T09:05:41.289Z,0.50
2023-03-18T09:10:45.097Z,0.50
2023-03-18T09:15:46.932Z,0.35
2023-03-18T09:20:48.306Z,0.30
2023-03-18T09:25:50.108Z,0.40
2023-03-18T09:30:51.631Z,0.30
2023-03-18T09:35:54.027Z,0.22
2023-03-18T09:41:43.557Z,0.40
2023-03-18T09:46:56.964Z,0.30
2023-03-18T09:52:11.439Z,0.30
2023-03-18T09:57:16.945Z,0.30
2023-03-18T10:02:32.614Z,0.40
2023-03-18T10:07:37.080Z,0.20
2023-03-18T10:12:47.834Z,0.20
2023-03-18T10:18:27.804Z,0.40
2023-03-18T10:23:54.804Z,0.30
2023-03-18T10:29:37.735Z,0.30
2023-03-18T10:34:51.132Z,0.45
2023-03-18T10:39:53.039Z,0.40
2023-03-18T10:44:55.991Z,0.35
2023-03-18T10:50:17.244Z,0.35
2023-03-18T10:55:21.617Z,0.45
2023-03-18T11:00:27.768Z,0.35
2023-03-18T11:05:34.903Z,0.60
2023-03-18T11:10:45.637Z,0.47
2023-03-18T11:15:50.089Z,0.30
2023-03-18T11:21:00.816Z,0.20
2023-03-18T11:26:02.299Z,0.30
2023-03-18T11:31:05.103Z,0.30
2023-03-18T11:36:06.828Z,0.40
2023-03-18T11:41:24.361Z,0.40
2023-03-18T11:46:27.714Z,0.40
2023-03-18T11:51:40.114Z,0.30
2023-03-18T11:56:48.463Z,0.43
2023-03-18T12:02:14.106Z,0.30
2023-03-18T12:07:38.564Z,0.30
2023-03-18T12:12:59.729Z,0.30
2023-03-18T12:18:12.371Z,0.40
2023-03-18T12:23:21.167Z,0.50
2023-03-18T12:28:42.447Z,0.30
2023-03-18T12:33:55.024Z,0.35
2023-03-18T12:39:18.857Z,0.32
2023-03-18T12:44:57.913Z,0.30
2023-03-18T12:50:02.092Z,0.40
2023-03-18T12:55:16.052Z,0.30
2023-03-18T13:00:28.224Z,0.40
2023-03-18T13:06:00.593Z,0.38
2023-03-18T13:11:26.791Z,0.55
2023-03-18T13:16:28.183Z,0.50
2023-03-18T13:21:30.847Z,0.40
2023-03-18T13:27:07.564Z,0.47
2023-03-18T13:32:36.827Z,0.50
2023-03-18T13:38:11.059Z,0.20
2023-03-18T13:43:17.324Z,0.40
2023-03-18T13:48:31.796Z,0.52
2023-03-18T13:53:34.359Z,0.40
2023-03-18T13:58:48.006Z,0.38
2023-03-18T14:03:49.280Z,0.40
2023-03-18T14:08:51.713Z,0.40
2023-03-18T14:13:57.311Z,0.50
2023-03-18T14:19:17.893Z,0.50
2023-03-18T14:24:19.093Z,0.47
2023-03-18T14:29:30.800Z,0.47
2023-03-18T14:34:33.178Z,0.40
2023-03-18T14:39:46.192Z,0.47
2023-03-18T14:44:50.026Z,0.32
2023-03-18T14:49:52.394Z,0.30
2023-03-18T14:54:54.943Z,0.50
2023-03-18T14:59:58.543Z,0.30
2023-03-18T15:05:00.603Z,0.40
2023-03-18T15:10:10.323Z,0.73
2023-03-18T15:15:14.425Z,0.60
2023-03-18T15:20:16.075Z,0.57
2023-03-18T15:25:20.855Z,0.40
2023-03-18T15:30:30.045Z,0.30
2023-03-18T15:35:31.914Z,0.52
2023-03-18T15:40:36.168Z,0.40
2023-03-18T15:46:00.743Z,0.60
2023-03-18T15:51:04.194Z,0.50
2023-03-18T15:56:23.683Z,0.60
2023-03-18T16:01:25.324Z,0.50
2023-03-18T16:06:26.951Z,0.40
2023-03-18T16:11:28.661Z,0.50
2023-03-18T16:16:30.451Z,0.60
2023-03-18T16:21:31.863Z,0.60
2023-03-18T16:26:33.289Z,0.57
2023-03-18T16:31:34.691Z,0.85
2023-03-18T16:36:36.185Z,0.93
2023-03-18T16:41:37.571Z,0.65
2023-03-18T16:46:38.959Z,0.52
2023-03-18T16:51:41.172Z,0.65
2023-03-18T16:56:42.564Z,0.80
2023-03-18T17:01:45.551Z,0.73
2023-03-18T17:06:46.958Z,0.60
2023-03-18T17:11:49.086Z,0.80
2023-03-18T17:16:50.479Z,0.60
2023-03-18T17:21:55.288Z,0.80
2023-03-18T17:26:56.697Z,0.90
2023-03-18T17:31:58.117Z,0.70
2023-03-18T17:36:59.558Z,0.70
2023-03-18T17:42:01.916Z,0.65
2023-03-18T17:47:03.332Z,0.90
2023-03-18T17:52:04.806Z,0.70
2023-03-18T17:57:06.228Z,0.85
2023-03-18T18:02:17.521Z,0.70
2023-03-18T18:07:22.019Z,0.80
2023-03-18T18:12:25.084Z,0.82
2023-03-18T18:17:26.473Z,0.80
2023-03-18T18:22:27.870Z,0.88
2023-03-18T18:27:29.268Z,0.80
2023-03-18T18:32:30.663Z,0.77
2023-03-18T18:37:33.634Z,0.80
2023-03-18T18:42:35.015Z,0.85
2023-03-18T18:47:37.264Z,0.90
2023-03-18T18:52:38.863Z,0.80
2023-03-18T18:57:43.121Z,0.70
2023-03-18T19:02:46.615Z,1.10
2023-03-18T19:07:48.032Z,0.88
2023-03-18T19:12:49.414Z,1.00
2023-03-18T19:17:51.228Z,1.10
2023-03-18T19:22:53.108Z,1.00
2023-03-18T19:27:54.709Z,0.98
2023-03-18T19:32:56.505Z,0.77
2023-03-18T19:37:59.094Z,1.10
2023-03-18T19:43:00.912Z,0.98
2023-03-18T19:48:02.309Z,1.10
2023-03-18T19:53:12.361Z,1.00
2023-03-18T19:58:23.893Z,1.10
2023-03-18T20:03:26.983Z,0.98
2023-03-18T20:08:28.484Z,1.20
2023-03-18T20:13:29.859Z,1.00
2023-03-18T20:18:31.235Z,0.90
2023-03-18T20:23:32.957Z,1.10
2023-03-18T20:28:34.324Z,1.15
2023-03-18T20:33:35.724Z,1.00
2023-03-18T20:38:38.557Z,1.00
2023-03-18T20:43:39.952Z,0.90
2023-03-18T20:48:41.556Z,1.00
2023-03-18T20:53:43.182Z,1.00
2023-03-18T20:58:44.593Z,0.93
2023-03-18T21:03:46.147Z,0.90
2023-03-18T21:08:47.562Z,1.05
2023-03-18T21:13:49.002Z,0.88
2023-03-18T21:18:50.504Z,0.90
2023-03-18T21:23:52.366Z,1.10
2023-03-18T21:28:53.801Z,0.90
2023-03-18T21:33:55.530Z,1.00
2023-03-18T21:38:56.921Z,0.90
2023-03-18T21:43:58.289Z,0.90
2023-03-18T21:48:59.813Z,1.20
2023-03-18T21:54:01.500Z,1.08
2023-03-18T21:59:02.896Z,0.90
2023-03-18T22:04:04.320Z,1.00
2023-03-18T22:09:05.737Z,1.00
2023-03-18T22:14:07.391Z,0.90
2023-03-18T22:19:08.758Z,0.90
2023-03-18T22:24:13.599Z,0.85
2023-03-18T22:29:15.176Z,0.90
2023-03-18T22:34:23.059Z,0.90
2023-03-18T22:39:24.536Z,1.00
2023-03-18T22:44:25.932Z,1.02
2023-03-18T22:49:27.354Z,0.95
2023-03-18T22:54:28.747Z,1.10
2023-03-18T22:59:30.278Z,0.90
2023-03-18T23:04:31.837Z,1.00
2023-03-18T23:09:34.718Z,0.70
2023-03-18T23:14:37.835Z,0.98
2023-03-18T23:19:39.223Z,0.80
2023-03-18T23:24:40.848Z,0.70
2023-03-18T23:29:43.268Z,0.90
2023-03-18T23:34:44.852Z,0.80
2023-03-18T23:39:46.444Z,1.00
2023-03-18T23:44:48.491Z,0.75
2023-03-18T23:49:49.932Z,0.82
2023-03-18T23:54:51.396Z,0.80
2023-03-18T23:59:52.789Z,0.80
